Weather at Arsbol Airstrip

Public forecast

Using degrees Celsius for public forecast. Weather courtesy of forecast.io.

Closest aviation weather report (METAR) to Arsbol Airstrip

Closest report is Sentani International Airport, 116.0 nm (214.8 km) NE. Retrieved 2020/09/29 15:30 UTC (0 seconds ago):

WAJJ 291530Z 00000KT 9999 FEW013 26/23 Q1007 NOSIG

Closest aviation forecast (TAF) to Arsbol Airstrip

Forecast is more than 12 hours old.

Closest forecast is Sentani International Airport, 116.0 nm (214.8 km) NE. Retrieved 2013/03/11 12:00 UTC (8 years ago):

TAF WAJJ 111100Z 1112/1212 29006KT 5000 HZ SCT016 TEMPO 1113/1121 4000 RA FEW014CB BECMG 1200/1202 28012KT 9999 TEMPO 1207/1212 6000 RA FEW014CB